createdAt,value
2017-12-21T00:00:34.452Z,972.94
2017-12-21T00:01:34.466Z,972.99
2017-12-21T00:02:34.481Z,973.04
2017-12-21T00:03:34.542Z,973.05
2017-12-21T00:04:34.507Z,973.07
2017-12-21T00:05:34.519Z,973.04
2017-12-21T00:06:34.532Z,973.04
2017-12-21T00:07:34.547Z,973.07
2017-12-21T00:08:34.560Z,973.09
2017-12-21T00:09:34.574Z,973.05
2017-12-21T00:10:34.588Z,973.01
2017-12-21T00:11:34.602Z,972.97
2017-12-21T00:12:34.613Z,972.94
2017-12-21T00:13:34.627Z,972.93
2017-12-21T00:14:34.640Z,972.91
2017-12-21T00:15:34.655Z,972.88
2017-12-21T00:16:34.666Z,972.78
2017-12-21T00:17:34.681Z,972.74
2017-12-21T00:18:34.744Z,972.69
2017-12-21T00:19:34.707Z,972.71
2017-12-21T00:20:34.722Z,972.68
2017-12-21T00:21:34.732Z,972.75
2017-12-21T00:22:34.746Z,972.79
2017-12-21T00:23:34.759Z,972.84
2017-12-21T00:24:34.772Z,972.87
2017-12-21T00:25:34.786Z,972.88
2017-12-21T00:26:34.799Z,972.86
2017-12-21T00:27:34.814Z,972.81
2017-12-21T00:28:34.826Z,972.8
2017-12-21T00:29:34.890Z,972.77
2017-12-21T00:30:34.859Z,972.71
2017-12-21T00:31:34.865Z,972.73
2017-12-21T00:32:34.888Z,972.8
2017-12-21T00:33:34.941Z,972.83
2017-12-21T00:34:34.904Z,972.86
2017-12-21T00:35:34.917Z,972.9
2017-12-21T00:36:34.930Z,972.85
2017-12-21T00:37:34.944Z,972.9
2017-12-21T00:38:34.956Z,972.87
2017-12-21T00:39:34.969Z,972.87
2017-12-21T00:40:34.986Z,972.89
2017-12-21T00:41:34.995Z,972.96
2017-12-21T00:42:35.010Z,972.97
2017-12-21T00:43:35.022Z,972.96
2017-12-21T00:44:35.036Z,972.96
2017-12-21T00:45:35.047Z,972.91
2017-12-21T00:46:35.061Z,972.88
2017-12-21T00:47:35.078Z,972.88
2017-12-21T00:48:35.142Z,972.91
2017-12-21T00:49:35.102Z,972.93
2017-12-21T00:50:35.120Z,972.9
2017-12-21T00:51:35.127Z,972.94
2017-12-21T00:52:35.140Z,972.93
2017-12-21T00:53:35.154Z,972.96
2017-12-21T00:54:35.167Z,972.97
2017-12-21T00:55:35.180Z,972.97
2017-12-21T00:56:35.192Z,972.98
2017-12-21T00:57:35.205Z,972.97
2017-12-21T00:58:35.218Z,972.99
2017-12-21T00:59:35.232Z,972.99
2017-12-21T01:00:35.247Z,973
2017-12-21T01:01:35.267Z,972.98
2017-12-21T01:02:35.271Z,973.01
2017-12-21T01:03:35.334Z,973.08
2017-12-21T01:04:35.296Z,973.11
2017-12-21T01:05:35.311Z,973.04
2017-12-21T01:06:35.324Z,973.03
2017-12-21T01:07:35.571Z,973.02
2017-12-21T01:08:35.363Z,973.01
2017-12-21T01:09:35.364Z,973.04
2017-12-21T01:10:35.378Z,972.99
2017-12-21T01:11:35.390Z,973.06
2017-12-21T01:12:35.404Z,973.1
2017-12-21T01:13:35.417Z,973.12
2017-12-21T01:14:35.428Z,973.13
2017-12-21T01:15:35.442Z,973.19
2017-12-21T01:16:35.455Z,973.24
2017-12-21T01:17:35.471Z,973.17
2017-12-21T01:18:35.533Z,973.18
2017-12-21T01:19:35.496Z,973.15
2017-12-21T01:20:35.508Z,973.14
2017-12-21T01:21:35.524Z,973.15
2017-12-21T01:22:35.537Z,973.16
2017-12-21T01:23:35.550Z,973.17
2017-12-21T01:24:35.567Z,973.19
2017-12-21T01:25:35.575Z,973.17
2017-12-21T01:26:35.590Z,973.15
2017-12-21T01:27:35.604Z,973.14
2017-12-21T01:28:35.616Z,973.11
2017-12-21T01:29:35.629Z,973.05
2017-12-21T01:30:35.643Z,973.02
2017-12-21T01:31:35.656Z,973
2017-12-21T01:32:35.671Z,973
2017-12-21T01:33:35.734Z,973.12
2017-12-21T01:34:35.696Z,973.13
2017-12-21T01:35:35.710Z,973.18
2017-12-21T01:36:35.722Z,973.17
2017-12-21T01:37:35.751Z,973.18
2017-12-21T01:38:35.749Z,973.11
2017-12-21T01:39:35.763Z,973.1
2017-12-21T01:40:35.776Z,973.1
2017-12-21T01:41:35.787Z,973.1
2017-12-21T01:42:35.805Z,973.13
2017-12-21T01:43:35.816Z,973.11
2017-12-21T01:44:35.829Z,973.11
2017-12-21T01:45:35.841Z,973.16
2017-12-21T01:46:35.854Z,973.19
2017-12-21T01:47:35.868Z,973.17
2017-12-21T01:48:35.931Z,973.2
2017-12-21T01:49:35.893Z,973.14
2017-12-21T01:50:35.907Z,973.1
2017-12-21T01:51:35.919Z,973.11
2017-12-21T01:52:35.932Z,973.12
2017-12-21T01:53:35.946Z,973.08
2017-12-21T01:54:35.959Z,973.08
2017-12-21T01:55:35.972Z,973.06
2017-12-21T01:56:35.985Z,973.01
2017-12-21T01:57:36.001Z,972.99
2017-12-21T01:58:36.013Z,973.01
2017-12-21T01:59:36.024Z,973.01
2017-12-21T02:00:36.036Z,973.02
2017-12-21T02:01:36.051Z,972.96
2017-12-21T02:02:36.063Z,972.95
2017-12-21T02:03:36.127Z,972.96
2017-12-21T02:04:36.089Z,972.96
2017-12-21T02:05:36.102Z,972.97
2017-12-21T02:06:36.118Z,972.9
2017-12-21T02:07:36.130Z,972.87
2017-12-21T02:08:36.141Z,972.9
2017-12-21T02:09:36.154Z,972.84
2017-12-21T02:10:36.168Z,972.9
2017-12-21T02:11:36.182Z,972.92
2017-12-21T02:12:36.195Z,972.96
2017-12-21T02:13:36.210Z,973.01
2017-12-21T02:14:36.220Z,973.05
2017-12-21T02:15:36.233Z,973.03
2017-12-21T02:16:36.246Z,973.06
2017-12-21T02:17:36.258Z,973.1
2017-12-21T02:18:36.323Z,973.12
2017-12-21T02:19:36.287Z,973.18
2017-12-21T02:20:36.301Z,973.2
2017-12-21T02:21:36.312Z,973.31
2017-12-21T02:22:36.325Z,973.3
2017-12-21T02:23:36.339Z,973.35
2017-12-21T02:24:36.352Z,973.31
2017-12-21T02:25:36.365Z,973.32
2017-12-21T02:26:36.378Z,973.35
2017-12-21T02:27:36.391Z,973.34
2017-12-21T02:28:36.402Z,973.33
2017-12-21T02:29:36.416Z,973.31
2017-12-21T02:30:36.431Z,973.32
2017-12-21T02:31:36.443Z,973.34
2017-12-21T02:32:36.457Z,973.36
2017-12-21T02:33:36.519Z,973.37
2017-12-21T02:34:36.483Z,973.36
2017-12-21T02:35:36.501Z,973.4
2017-12-21T02:36:36.508Z,973.43
2017-12-21T02:37:36.522Z,973.38
2017-12-21T02:38:36.533Z,973.36
2017-12-21T02:39:36.547Z,973.37
2017-12-21T02:40:36.559Z,973.27
2017-12-21T02:41:36.574Z,973.32
2017-12-21T02:42:36.586Z,973.29
2017-12-21T02:43:36.600Z,973.31
2017-12-21T02:44:36.613Z,973.31
2017-12-21T02:45:36.627Z,973.31
2017-12-21T02:46:36.638Z,973.29
2017-12-21T02:47:36.651Z,973.33
2017-12-21T02:48:36.714Z,973.32
2017-12-21T02:49:36.678Z,973.29
2017-12-21T02:50:36.690Z,973.3
2017-12-21T02:51:36.705Z,973.29
2017-12-21T02:52:36.716Z,973.27
2017-12-21T02:53:36.729Z,973.25
2017-12-21T02:54:36.743Z,973.24
2017-12-21T02:55:36.757Z,973.19
2017-12-21T02:56:36.788Z,973.19
2017-12-21T02:57:36.781Z,973.13
2017-12-21T02:58:36.794Z,973.06
2017-12-21T02:59:36.809Z,973.02
2017-12-21T03:00:36.822Z,972.96
2017-12-21T03:01:36.835Z,973.02
2017-12-21T03:02:36.847Z,973.01
2017-12-21T03:03:36.911Z,972.94
2017-12-21T03:04:36.874Z,972.97
2017-12-21T03:05:36.887Z,972.89
2017-12-21T03:06:36.900Z,972.94
2017-12-21T03:07:36.914Z,972.96
2017-12-21T03:08:36.927Z,972.94
2017-12-21T03:09:36.941Z,972.94
2017-12-21T03:10:36.954Z,972.95
2017-12-21T03:11:36.964Z,972.94
2017-12-21T03:12:36.980Z,972.92
2017-12-21T03:13:36.992Z,972.93
2017-12-21T03:14:37.005Z,972.98
2017-12-21T03:15:37.018Z,973.01
2017-12-21T03:16:37.031Z,973.06
2017-12-21T03:17:37.045Z,973.05
2017-12-21T03:18:37.108Z,973.09
2017-12-21T03:19:37.070Z,973.01
2017-12-21T03:20:37.085Z,973.01
2017-12-21T03:21:37.101Z,972.98
2017-12-21T03:22:37.110Z,973.02
2017-12-21T03:23:37.124Z,973.09
2017-12-21T03:24:37.138Z,973.05
2017-12-21T03:25:37.154Z,973.06
2017-12-21T03:26:37.163Z,973.07
2017-12-21T03:27:37.176Z,973.06
2017-12-21T03:28:37.189Z,973.05
2017-12-21T03:29:37.201Z,973.03
2017-12-21T03:30:37.216Z,973.04
2017-12-21T03:31:37.229Z,973.01
2017-12-21T03:32:37.243Z,972.99
2017-12-21T03:33:37.303Z,972.97
2017-12-21T03:34:37.266Z,972.91
2017-12-21T03:35:37.281Z,972.98
2017-12-21T03:36:37.293Z,972.95
2017-12-21T03:37:37.305Z,972.92
2017-12-21T03:38:37.319Z,972.91
2017-12-21T03:39:37.339Z,972.89
2017-12-21T03:40:37.345Z,972.8
2017-12-21T03:41:37.358Z,972.77
2017-12-21T03:42:37.372Z,972.69
2017-12-21T03:43:37.384Z,972.66
2017-12-21T03:44:37.396Z,972.62
2017-12-21T03:45:37.411Z,972.63
2017-12-21T03:46:37.427Z,972.63
2017-12-21T03:47:37.435Z,972.63
2017-12-21T03:48:37.498Z,972.65
2017-12-21T03:49:37.461Z,972.68
2017-12-21T03:50:37.476Z,972.69
2017-12-21T03:51:37.530Z,972.7
2017-12-21T03:52:37.501Z,972.66
2017-12-21T03:53:37.515Z,972.66
2017-12-21T03:54:37.528Z,972.74
2017-12-21T03:55:37.540Z,972.76
2017-12-21T03:56:37.553Z,972.79
2017-12-21T03:57:37.569Z,972.83
2017-12-21T03:58:37.586Z,972.89
2017-12-21T03:59:37.592Z,972.9
2017-12-21T04:00:37.606Z,972.9
2017-12-21T04:01:37.619Z,972.92
2017-12-21T04:02:37.641Z,972.9
2017-12-21T04:03:37.694Z,972.9
2017-12-21T04:04:37.657Z,972.95
2017-12-21T04:05:37.672Z,973.02
2017-12-21T04:06:37.683Z,972.95
2017-12-21T04:07:37.697Z,972.97
2017-12-21T04:08:37.709Z,972.96
2017-12-21T04:09:37.724Z,972.89
2017-12-21T04:10:37.735Z,972.96
2017-12-21T04:11:37.750Z,973
2017-12-21T04:12:37.762Z,973
2017-12-21T04:13:37.775Z,973.06
2017-12-21T04:14:37.787Z,973.07
2017-12-21T04:15:37.823Z,973.04
2017-12-21T04:16:37.813Z,973.04
2017-12-21T04:17:37.827Z,973.08
2017-12-21T04:18:37.889Z,973.04
2017-12-21T04:19:37.853Z,973.03
2017-12-21T04:20:37.865Z,973.04
2017-12-21T04:21:37.878Z,973.04
2017-12-21T04:22:37.893Z,973.04
2017-12-21T04:23:37.906Z,973.04
2017-12-21T04:24:37.917Z,973.04
2017-12-21T04:25:37.931Z,973.11
2017-12-21T04:26:37.943Z,973.05
2017-12-21T04:27:37.957Z,973.06
2017-12-21T04:28:37.969Z,973.02
2017-12-21T04:29:37.983Z,973.04
2017-12-21T04:30:37.996Z,972.99
2017-12-21T04:31:38.010Z,973.05
2017-12-21T04:32:38.023Z,973.03
2017-12-21T04:33:38.085Z,973.04
2017-12-21T04:34:38.048Z,973.04
2017-12-21T04:35:38.061Z,973.06
2017-12-21T04:36:38.073Z,973.11
2017-12-21T04:37:38.086Z,973.08
2017-12-21T04:38:38.101Z,973.08
2017-12-21T04:39:38.113Z,973.08
2017-12-21T04:40:38.127Z,973.1
2017-12-21T04:41:38.141Z,973.1
2017-12-21T04:42:38.153Z,973.12
2017-12-21T04:43:38.166Z,973.15
2017-12-21T04:44:38.178Z,973.24
2017-12-21T04:45:38.192Z,973.16
2017-12-21T04:46:38.205Z,973.21
2017-12-21T04:47:38.223Z,973.3
2017-12-21T04:48:38.282Z,973.29
2017-12-21T04:49:38.243Z,973.27
2017-12-21T04:50:38.255Z,973.28
2017-12-21T04:51:38.270Z,973.28
2017-12-21T04:52:38.283Z,973.3
2017-12-21T04:53:38.295Z,973.28
2017-12-21T04:54:38.308Z,973.25
2017-12-21T04:55:38.321Z,973.2
2017-12-21T04:56:38.336Z,973.18
2017-12-21T04:57:38.346Z,973.14
2017-12-21T04:58:38.374Z,973.1
2017-12-21T04:59:38.375Z,973.05
2017-12-21T05:00:38.387Z,973.03
2017-12-21T05:01:38.399Z,972.97
2017-12-21T05:02:38.412Z,972.98
2017-12-21T05:03:38.476Z,973
2017-12-21T05:04:38.438Z,973.04
2017-12-21T05:05:38.454Z,972.99
2017-12-21T05:06:38.464Z,972.95
2017-12-21T05:07:38.478Z,973.01
2017-12-21T05:08:38.499Z,973.02
2017-12-21T05:09:38.503Z,973.01
2017-12-21T05:10:38.516Z,973.08
2017-12-21T05:11:38.530Z,973.07
2017-12-21T05:12:38.541Z,973.13
2017-12-21T05:13:38.555Z,973.13
2017-12-21T05:14:38.568Z,973.14
2017-12-21T05:15:38.581Z,973.12
2017-12-21T05:16:38.597Z,973.14
2017-12-21T05:17:38.607Z,973.17
2017-12-21T05:18:38.670Z,973.21
2017-12-21T05:19:38.636Z,973.24
2017-12-21T05:20:38.648Z,973.29
2017-12-21T05:21:38.660Z,973.28
2017-12-21T05:22:38.673Z,973.32
2017-12-21T05:23:38.686Z,973.29
2017-12-21T05:24:38.700Z,973.35
2017-12-21T05:25:38.712Z,973.38
2017-12-21T05:26:38.726Z,973.38
2017-12-21T05:27:38.742Z,973.35
2017-12-21T05:28:38.803Z,973.38
2017-12-21T05:29:38.767Z,973.34
2017-12-21T05:30:38.781Z,973.33
2017-12-21T05:31:38.792Z,973.31
2017-12-21T05:32:38.807Z,973.34
2017-12-21T05:33:38.869Z,973.29
2017-12-21T05:34:38.832Z,973.26
2017-12-21T05:35:38.845Z,973.23
2017-12-21T05:36:38.859Z,973.22
2017-12-21T05:37:38.870Z,973.21
2017-12-21T05:38:38.885Z,973.15
2017-12-21T05:39:38.899Z,973.14
2017-12-21T05:40:38.911Z,973.17
2017-12-21T05:41:38.926Z,973.17
2017-12-21T05:42:38.939Z,973.18
2017-12-21T05:43:38.985Z,973.17
2017-12-21T05:44:38.964Z,973.21
2017-12-21T05:45:38.978Z,973.19
2017-12-21T05:46:38.992Z,973.2
2017-12-21T05:47:39.005Z,973.2
2017-12-21T05:48:39.067Z,973.23
2017-12-21T05:49:39.030Z,973.26
2017-12-21T05:50:39.044Z,973.24
2017-12-21T05:51:39.056Z,973.27
2017-12-21T05:52:39.068Z,973.26
2017-12-21T05:53:39.082Z,973.28
2017-12-21T05:54:39.096Z,973.31
2017-12-21T05:55:39.111Z,973.25
2017-12-21T05:56:39.121Z,973.21
2017-12-21T05:57:39.136Z,973.29
2017-12-21T05:58:39.150Z,973.25
2017-12-21T05:59:39.168Z,973.28
2017-12-21T06:00:39.175Z,973.23
2017-12-21T06:01:39.188Z,973.26
2017-12-21T06:02:39.203Z,973.31
2017-12-21T06:03:39.214Z,973.29
2017-12-21T06:04:39.238Z,973.31
2017-12-21T06:05:39.241Z,973.26
2017-12-21T06:06:39.256Z,973.25
2017-12-21T06:07:39.268Z,973.27
2017-12-21T06:08:39.280Z,973.35
2017-12-21T06:09:39.295Z,973.29
2017-12-21T06:10:39.307Z,973.38
2017-12-21T06:11:39.322Z,973.37
2017-12-21T06:12:39.334Z,973.34
2017-12-21T06:13:39.350Z,973.36
2017-12-21T06:14:39.360Z,973.33
2017-12-21T06:15:39.374Z,973.33
2017-12-21T06:16:39.388Z,973.32
2017-12-21T06:17:39.411Z,973.35
2017-12-21T06:18:39.414Z,973.39
2017-12-21T06:19:39.428Z,973.36
2017-12-21T06:20:39.591Z,973.34
2017-12-21T06:21:39.454Z,973.34
2017-12-21T06:22:39.468Z,973.4
2017-12-21T06:23:39.482Z,973.42
2017-12-21T06:24:39.497Z,973.4
2017-12-21T06:25:39.509Z,973.39
2017-12-21T06:26:39.522Z,973.44
2017-12-21T06:27:39.534Z,973.47
2017-12-21T06:28:39.549Z,973.44
2017-12-21T06:29:39.560Z,973.48
2017-12-21T06:30:39.575Z,973.5
2017-12-21T06:31:39.588Z,973.41
2017-12-21T06:32:39.600Z,973.42
2017-12-21T06:33:39.613Z,973.36
2017-12-21T06:34:39.626Z,973.33
2017-12-21T06:35:39.640Z,973.37
2017-12-21T06:36:39.652Z,973.31
2017-12-21T06:37:39.666Z,973.35
2017-12-21T06:38:39.681Z,973.34
2017-12-21T06:39:39.692Z,973.31
2017-12-21T06:40:39.705Z,973.28
2017-12-21T06:41:39.718Z,973.29
2017-12-21T06:42:39.732Z,973.32
2017-12-21T06:43:39.745Z,973.35
2017-12-21T06:44:39.759Z,973.38
2017-12-21T06:45:39.771Z,973.47
2017-12-21T06:46:39.784Z,973.39
2017-12-21T06:47:39.798Z,973.43
2017-12-21T06:48:39.811Z,973.46
2017-12-21T06:49:39.824Z,973.47
2017-12-21T06:50:39.838Z,973.51
2017-12-21T06:51:39.852Z,973.46
2017-12-21T06:52:39.864Z,973.45
2017-12-21T06:53:39.895Z,973.47
2017-12-21T06:54:39.888Z,973.45
2017-12-21T06:55:39.903Z,973.41
2017-12-21T06:56:39.917Z,973.45
2017-12-21T06:57:39.929Z,973.44
2017-12-21T06:58:39.943Z,973.45
2017-12-21T06:59:39.956Z,973.46
2017-12-21T07:00:39.969Z,973.43
2017-12-21T07:01:39.982Z,973.47
2017-12-21T07:02:39.995Z,973.52
2017-12-21T07:03:40.013Z,973.52
2017-12-21T07:04:40.021Z,973.64
2017-12-21T07:05:40.035Z,973.65
2017-12-21T07:06:40.046Z,973.68
2017-12-21T07:07:40.061Z,973.61
2017-12-21T07:08:40.074Z,973.6
2017-12-21T07:09:40.087Z,973.54
2017-12-21T07:10:40.102Z,973.48
2017-12-21T07:11:40.116Z,973.43
2017-12-21T07:12:40.126Z,973.45
2017-12-21T07:13:40.139Z,973.45
2017-12-21T07:14:40.153Z,973.41
2017-12-21T07:15:40.165Z,973.39
2017-12-21T07:16:40.183Z,973.46
2017-12-21T07:17:40.191Z,973.49
2017-12-21T07:18:40.204Z,973.52
2017-12-21T07:19:40.217Z,973.46
2017-12-21T07:20:40.233Z,973.43
2017-12-21T07:21:40.241Z,973.39
2017-12-21T07:22:40.256Z,973.37
2017-12-21T07:23:40.269Z,973.31
2017-12-21T07:24:40.281Z,973.33
2017-12-21T07:25:40.295Z,973.35
2017-12-21T07:26:40.309Z,973.35
2017-12-21T07:27:40.320Z,973.34
2017-12-21T07:28:40.340Z,973.32
2017-12-21T07:29:40.348Z,973.34
2017-12-21T07:30:40.360Z,973.3
2017-12-21T07:31:40.373Z,973.34
2017-12-21T07:32:40.386Z,973.3
2017-12-21T07:33:40.399Z,973.38
2017-12-21T07:34:40.413Z,973.34
2017-12-21T07:35:40.425Z,973.43
2017-12-21T07:36:40.447Z,973.45
2017-12-21T07:37:40.451Z,973.43
2017-12-21T07:38:40.463Z,973.47
2017-12-21T07:39:40.679Z,973.49
2017-12-21T07:40:40.490Z,973.43
2017-12-21T07:41:40.503Z,973.52
2017-12-21T07:42:40.515Z,973.48
2017-12-21T07:43:40.528Z,973.44
2017-12-21T07:44:40.545Z,973.43
2017-12-21T07:45:40.555Z,973.47
2017-12-21T07:46:40.570Z,973.46
2017-12-21T07:47:40.583Z,973.42
2017-12-21T07:48:40.594Z,973.46
2017-12-21T07:49:40.605Z,973.46
2017-12-21T07:50:40.620Z,973.47
2017-12-21T07:51:40.633Z,973.5
2017-12-21T07:52:40.646Z,973.5
2017-12-21T07:53:40.662Z,973.46
2017-12-21T07:54:40.672Z,973.49
2017-12-21T07:55:40.684Z,973.45
2017-12-21T07:56:40.697Z,973.5
2017-12-21T07:57:40.711Z,973.51
2017-12-21T07:58:40.723Z,973.49
2017-12-21T07:59:40.736Z,973.47
2017-12-21T08:00:40.750Z,973.46
2017-12-21T08:01:40.763Z,973.49
2017-12-21T08:02:40.780Z,973.43
2017-12-21T08:03:40.796Z,973.44
2017-12-21T08:04:40.801Z,973.48
2017-12-21T08:05:40.818Z,973.47
2017-12-21T08:06:40.830Z,973.5
2017-12-21T08:07:40.844Z,973.52
2017-12-21T08:08:40.854Z,973.53
2017-12-21T08:09:40.868Z,973.55
2017-12-21T08:10:40.881Z,973.54
2017-12-21T08:11:40.896Z,973.52
2017-12-21T08:12:40.908Z,973.5
2017-12-21T08:13:40.921Z,973.56
2017-12-21T08:14:40.934Z,973.59
2017-12-21T08:15:40.946Z,973.62
2017-12-21T08:16:40.959Z,973.62
2017-12-21T08:17:40.973Z,973.58
2017-12-21T08:18:40.985Z,973.67
2017-12-21T08:19:41.000Z,973.65
2017-12-21T08:20:41.012Z,973.7
2017-12-21T08:21:41.026Z,973.68
2017-12-21T08:22:41.041Z,973.68
2017-12-21T08:23:41.051Z,973.61
2017-12-21T08:24:41.065Z,973.57
2017-12-21T08:25:41.077Z,973.54
2017-12-21T08:26:41.090Z,973.51
2017-12-21T08:27:41.103Z,973.51
2017-12-21T08:28:41.118Z,973.51
2017-12-21T08:29:41.129Z,973.5
2017-12-21T08:30:41.143Z,973.57
2017-12-21T08:31:41.157Z,973.61
2017-12-21T08:32:41.174Z,973.57
2017-12-21T08:33:41.183Z,973.55
2017-12-21T08:34:41.196Z,973.54
2017-12-21T08:35:41.209Z,973.51
2017-12-21T08:36:41.223Z,973.47
2017-12-21T08:37:41.235Z,973.42
2017-12-21T08:38:41.249Z,973.41
2017-12-21T08:39:41.264Z,973.4
2017-12-21T08:40:41.277Z,973.45
2017-12-21T08:41:41.290Z,973.43
2017-12-21T08:42:41.304Z,973.45
2017-12-21T08:43:41.317Z,973.43
2017-12-21T08:44:41.330Z,973.41
2017-12-21T08:45:41.346Z,973.42
2017-12-21T08:46:41.358Z,973.41
2017-12-21T08:47:41.369Z,973.38
2017-12-21T08:48:41.385Z,973.4
2017-12-21T08:49:41.398Z,973.41
2017-12-21T08:50:41.416Z,973.38
2017-12-21T08:51:41.424Z,973.4
2017-12-21T08:52:41.440Z,973.4
2017-12-21T08:53:41.452Z,973.48
2017-12-21T08:54:41.468Z,973.49
2017-12-21T08:55:41.482Z,973.48
2017-12-21T08:56:41.557Z,973.55
2017-12-21T08:57:41.509Z,973.49
2017-12-21T08:58:41.523Z,973.54
2017-12-21T08:59:41.536Z,973.5
2017-12-21T09:00:41.552Z,973.5
2017-12-21T09:01:41.564Z,973.43
2017-12-21T09:02:41.579Z,973.45
2017-12-21T09:03:41.593Z,973.42
2017-12-21T09:04:41.609Z,973.46
2017-12-21T09:05:41.623Z,973.47
2017-12-21T09:06:41.700Z,973.42
2017-12-21T09:07:41.653Z,973.42
2017-12-21T09:08:41.670Z,973.46
2017-12-21T09:09:41.680Z,973.42
2017-12-21T09:10:41.699Z,973.44
2017-12-21T09:11:41.713Z,973.53
2017-12-21T09:12:41.728Z,973.56
2017-12-21T09:13:41.741Z,973.49
2017-12-21T09:14:41.757Z,973.55
2017-12-21T09:15:41.771Z,973.49
2017-12-21T09:16:41.788Z,973.52
2017-12-21T09:17:41.802Z,973.48
2017-12-21T09:18:41.815Z,973.47
2017-12-21T09:19:41.831Z,973.5
2017-12-21T09:20:41.846Z,973.45
2017-12-21T09:21:41.860Z,973.41
2017-12-21T09:22:41.877Z,973.43
2017-12-21T09:23:41.891Z,973.46
2017-12-21T09:24:41.906Z,973.44
2017-12-21T09:25:41.922Z,973.42
2017-12-21T09:26:41.936Z,973.36
2017-12-21T09:27:41.952Z,973.38
2017-12-21T09:28:41.965Z,973.34
2017-12-21T09:29:41.982Z,973.32
2017-12-21T09:30:41.997Z,973.4
2017-12-21T09:31:42.010Z,973.37
2017-12-21T09:32:42.026Z,973.36
2017-12-21T09:33:42.040Z,973.38
2017-12-21T09:34:42.055Z,973.42
2017-12-21T09:35:42.070Z,973.38
2017-12-21T09:36:42.087Z,973.41
2017-12-21T09:37:42.100Z,973.39
2017-12-21T09:38:42.118Z,973.42
2017-12-21T09:39:42.130Z,973.35
2017-12-21T09:40:42.147Z,973.44
2017-12-21T09:41:42.162Z,973.39
2017-12-21T09:42:42.177Z,973.35
2017-12-21T09:43:42.191Z,973.32
2017-12-21T09:44:42.206Z,973.33
2017-12-21T09:45:42.220Z,973.37
2017-12-21T09:46:42.253Z,973.26
2017-12-21T09:47:42.251Z,973.29
2017-12-21T09:48:42.266Z,973.35
2017-12-21T09:49:42.280Z,973.27
2017-12-21T09:50:42.301Z,973.41
2017-12-21T09:51:42.309Z,973.35
2017-12-21T09:52:42.326Z,973.31
2017-12-21T09:53:42.339Z,973.35
2017-12-21T09:54:42.354Z,973.32
2017-12-21T09:55:42.369Z,973.37
2017-12-21T09:56:42.385Z,973.3
2017-12-21T09:57:42.398Z,973.33
2017-12-21T09:58:42.413Z,973.34
2017-12-21T09:59:42.429Z,973.27
2017-12-21T10:00:42.444Z,973.27
2017-12-21T10:01:42.459Z,973.26
2017-12-21T10:02:42.474Z,973.27
2017-12-21T10:03:42.489Z,973.33
2017-12-21T10:04:42.503Z,973.25
2017-12-21T10:05:42.567Z,973.28
2017-12-21T10:06:42.533Z,973.25
2017-12-21T10:07:42.549Z,973.25
2017-12-21T10:08:42.563Z,973.28
2017-12-21T10:09:42.576Z,973.21
2017-12-21T10:10:42.593Z,973.16
2017-12-21T10:11:42.607Z,973.19
2017-12-21T10:12:42.621Z,973.17
2017-12-21T10:13:42.636Z,973.23
2017-12-21T10:14:42.651Z,973.19
2017-12-21T10:15:42.674Z,973.2
2017-12-21T10:16:42.681Z,973.16
2017-12-21T10:17:42.696Z,973.18
2017-12-21T10:18:42.711Z,973.18
2017-12-21T10:19:42.724Z,973.18
2017-12-21T10:20:42.743Z,973.1
2017-12-21T10:21:42.755Z,973.16
2017-12-21T10:22:42.770Z,973.15
2017-12-21T10:23:42.785Z,973.1
2017-12-21T10:24:42.802Z,973.16
2017-12-21T10:25:42.813Z,973.09
2017-12-21T10:26:42.827Z,973.06
2017-12-21T10:27:42.843Z,973.05
2017-12-21T10:28:42.862Z,973.07
2017-12-21T10:29:42.872Z,973.12
2017-12-21T10:30:42.886Z,973.1
2017-12-21T10:31:42.902Z,973.09
2017-12-21T10:32:42.917Z,973.05
2017-12-21T10:33:42.934Z,973.09
2017-12-21T10:34:42.945Z,973.04
2017-12-21T10:35:42.967Z,973
2017-12-21T10:36:42.975Z,972.99
2017-12-21T10:37:42.992Z,972.99
2017-12-21T10:38:43.004Z,972.92
2017-12-21T10:39:43.018Z,972.89
2017-12-21T10:40:43.035Z,972.95
2017-12-21T10:41:43.048Z,972.93
2017-12-21T10:42:43.063Z,972.91
2017-12-21T10:43:43.076Z,972.94
2017-12-21T10:44:43.093Z,972.9
2017-12-21T10:45:43.106Z,972.87
2017-12-21T10:46:43.124Z,972.9
2017-12-21T10:47:43.145Z,972.9
2017-12-21T10:48:43.150Z,972.88
2017-12-21T10:49:43.165Z,972.87
2017-12-21T10:50:43.181Z,972.96
2017-12-21T10:51:43.196Z,972.81
2017-12-21T10:52:43.211Z,972.88
2017-12-21T10:53:43.225Z,972.85
2017-12-21T10:54:43.240Z,972.88
2017-12-21T10:55:43.254Z,972.86
2017-12-21T10:56:43.270Z,972.9
2017-12-21T10:57:43.285Z,972.91
2017-12-21T10:58:43.335Z,972.84
2017-12-21T10:59:43.316Z,972.86
2017-12-21T11:00:43.330Z,972.82
2017-12-21T11:01:43.345Z,972.85
2017-12-21T11:02:43.363Z,972.84
2017-12-21T11:03:43.377Z,972.84
2017-12-21T11:04:43.393Z,972.87
2017-12-21T11:05:43.407Z,972.81
2017-12-21T11:06:43.442Z,972.85
2017-12-21T11:07:43.441Z,972.87
2017-12-21T11:08:43.453Z,972.89
2017-12-21T11:09:43.468Z,972.89
2017-12-21T11:10:43.485Z,972.87
2017-12-21T11:11:43.499Z,972.87
2017-12-21T11:12:43.517Z,972.77
2017-12-21T11:13:43.532Z,972.76
2017-12-21T11:14:43.598Z,972.76
2017-12-21T11:15:43.563Z,972.75
2017-12-21T11:16:43.580Z,972.69
2017-12-21T11:17:43.597Z,972.65
2017-12-21T11:18:43.611Z,972.61
2017-12-21T11:19:43.633Z,972.63
2017-12-21T11:20:43.642Z,972.6
2017-12-21T11:21:43.659Z,972.65
2017-12-21T11:22:43.679Z,972.64
2017-12-21T11:23:43.689Z,972.69
2017-12-21T11:24:43.705Z,972.67
2017-12-21T11:25:43.720Z,972.7
2017-12-21T11:26:43.737Z,972.72
2017-12-21T11:27:43.752Z,972.64
2017-12-21T11:28:43.767Z,972.65
2017-12-21T11:29:43.834Z,972.65
2017-12-21T11:30:43.799Z,972.61
2017-12-21T11:31:43.815Z,972.57
2017-12-21T11:32:43.830Z,972.55
2017-12-21T11:33:43.846Z,972.62
2017-12-21T11:34:43.862Z,972.56
2017-12-21T11:35:43.878Z,972.53
2017-12-21T11:36:43.894Z,972.5
2017-12-21T11:37:43.909Z,972.5
2017-12-21T11:38:43.926Z,972.44
2017-12-21T11:39:43.941Z,972.48
2017-12-21T11:40:43.959Z,972.39
2017-12-21T11:41:43.974Z,972.38
2017-12-21T11:42:43.992Z,972.37
2017-12-21T11:43:44.006Z,972.41
2017-12-21T11:44:44.181Z,972.37
2017-12-21T11:45:44.037Z,972.42
2017-12-21T11:46:44.055Z,972.4
2017-12-21T11:47:44.070Z,972.39
2017-12-21T11:48:44.086Z,972.37
2017-12-21T11:49:44.103Z,972.38
2017-12-21T11:50:44.119Z,972.42
2017-12-21T11:51:44.136Z,972.4
2017-12-21T11:52:44.151Z,972.4
2017-12-21T11:53:44.166Z,972.38
2017-12-21T11:54:44.182Z,972.46
2017-12-21T11:55:44.200Z,972.48
2017-12-21T11:56:44.217Z,972.46
2017-12-21T11:57:44.231Z,972.47
2017-12-21T11:58:44.247Z,972.5
2017-12-21T11:59:44.314Z,972.51
2017-12-21T12:00:44.280Z,972.54
2017-12-21T12:01:44.296Z,972.44
2017-12-21T12:02:44.316Z,972.45
2017-12-21T12:03:44.329Z,972.5
2017-12-21T12:04:44.346Z,972.44
2017-12-21T12:05:44.362Z,972.46
2017-12-21T12:06:44.380Z,972.47
2017-12-21T12:07:44.393Z,972.47
2017-12-21T12:08:44.408Z,972.4
2017-12-21T12:09:44.424Z,972.4
2017-12-21T12:10:44.441Z,972.47
2017-12-21T12:11:44.457Z,972.44
2017-12-21T12:12:44.472Z,972.42
2017-12-21T12:13:44.487Z,972.42
2017-12-21T12:14:44.553Z,972.4
2017-12-21T12:15:44.520Z,972.34
2017-12-21T12:16:44.534Z,972.35
2017-12-21T12:17:44.550Z,972.35
2017-12-21T12:18:44.565Z,972.34
2017-12-21T12:19:44.581Z,972.26
2017-12-21T12:20:44.597Z,972.26
2017-12-21T12:21:44.611Z,972.22
2017-12-21T12:22:44.629Z,972.23
2017-12-21T12:23:44.642Z,972.17
2017-12-21T12:24:44.659Z,972.15
2017-12-21T12:25:44.673Z,972.16
2017-12-21T12:26:44.691Z,972.15
2017-12-21T12:27:44.704Z,972.11
2017-12-21T12:28:44.721Z,972.1
2017-12-21T12:29:44.785Z,972.1
2017-12-21T12:30:44.751Z,972.12
2017-12-21T12:31:44.767Z,972.12